This is the latest recevied weather packets stored in our database for station/object TA2EE-10. If no packets are shown the sender has not sent any weather packets the latest 10 day(s).
| Time | Temp. | Humidity | Pressure | Rain* | Wind** | Luminosity | Snow |
|---|---|---|---|---|---|---|---|
| 1777555505 | 28.89° C | 16% | 912 hPa | - | - | 0 W/m² | - |
| 1777553383 | 29.44° C | 16% | 912 hPa | - | - | 0 W/m² | - |
| 1777553314 | 29.44° C | 17% | 912 hPa | - | - | 0 W/m² | - |
| 1777551191 | 30.56° C | 16% | 913 hPa | - | - | 0 W/m² | - |
| 1777549068 | 31.11° C | 15% | 913 hPa | - | - | 0 W/m² | - |
| 1777546945 | 32.22° C | 16% | 913 hPa | - | - | 0 W/m² | - |
| 1777544823 | 32.22° C | 16% | 914 hPa | - | - | 0 W/m² | - |
| 1777542701 | 31.67° C | 18% | 914 hPa | - | - | 0 W/m² | - |
| 1777540578 | 31.67° C | 17% | 914 hPa | - | - | 0 W/m² | - |
| 1777538456 | 31.11° C | 18% | 915 hPa | - | - | 0 W/m² | - |
| 1777536328 | 29.44° C | 18% | 915 hPa | - | - | 0 W/m² | - |
| 1777534205 | 30° C | 19% | 915 hPa | - | - | 0 W/m² | - |
| 1777532082 | 30.56° C | 18% | 915 hPa | - | - | 0 W/m² | - |
| 1777529959 | 30° C | 18% | 915 hPa | - | - | 0 W/m² | - |
| 1777527836 | 27.22° C | 21% | 915 hPa | - | - | 0 W/m² | - |
| 1777525714 | 22.22° C | 27% | 915 hPa | - | - | 0 W/m² | - |
| 1777523590 | 20° C | 30% | 915 hPa | - | - | 0 W/m² | - |
| 1777521468 | 19.44° C | 33% | 915 hPa | - | - | 0 W/m² | - |
| 1777519345 | 19.44° C | 33% | 915 hPa | - | - | 0 W/m² | - |
| 1777517222 | 20° C | 33% | 915 hPa | - | - | 0 W/m² | - |
| 1777515100 | 20° C | 31% | 915 hPa | - | - | 0 W/m² | - |
| 1777512977 | 20.56° C | 29% | 915 hPa | - | - | 0 W/m² | - |
| 1777510855 | 21.11° C | 27% | 915 hPa | - | - | 0 W/m² | - |
| 1777508732 | 21.11° C | 27% | 915 hPa | - | - | 0 W/m² | - |
| 1777507958 | 21.11° C | 26% | 914 hPa | - | - | 0 W/m² | - |
* Rain since midnight (hover to see other rain measurements)
** Current wind speed in m/s (hover to see current wind gust speed)